createdAt,value
2019-03-10T00:01:44.755Z,6.88
2019-03-10T00:04:14.959Z,6.87
2019-03-10T00:06:45.506Z,6.78
2019-03-10T00:09:16.849Z,6.82
2019-03-10T00:11:47.170Z,6.55
2019-03-10T00:14:17.661Z,6.34
2019-03-10T00:16:50.380Z,6.21
2019-03-10T00:19:21.012Z,6.22
2019-03-10T00:21:51.436Z,6.22
2019-03-10T00:24:22.372Z,6.20
2019-03-10T00:26:53.051Z,6.44
2019-03-10T00:29:26.183Z,6.56
2019-03-10T00:31:57.540Z,6.87
2019-03-10T00:34:27.950Z,7.26
2019-03-10T00:37:00.030Z,7.43
2019-03-10T00:39:42.635Z,7.69
2019-03-10T00:42:26.136Z,7.80
2019-03-10T00:45:33.189Z,7.90
2019-03-10T00:48:30.917Z,7.83
2019-03-10T00:51:18.856Z,7.92
2019-03-10T00:53:49.792Z,7.88
2019-03-10T00:56:20.116Z,7.67
2019-03-10T00:58:50.850Z,7.43
2019-03-10T01:01:21.480Z,7.28
2019-03-10T01:03:52.118Z,7.23
2019-03-10T01:06:23.457Z,7.27
2019-03-10T01:08:54.159Z,7.22
2019-03-10T01:11:24.919Z,7.10
2019-03-10T01:13:55.652Z,7.07
2019-03-10T01:16:26.278Z,7.14
2019-03-10T01:18:56.911Z,7.13
2019-03-10T01:21:28.191Z,7.19
2019-03-10T01:23:59.401Z,7.39
2019-03-10T01:26:30.029Z,7.57
2019-03-10T01:29:00.767Z,7.61
2019-03-10T01:31:57.609Z,7.67
2019-03-10T01:34:34.076Z,7.67
2019-03-10T01:37:08.482Z,7.67
2019-03-10T01:39:39.036Z,7.69
2019-03-10T01:42:09.852Z,7.77
2019-03-10T01:44:40.412Z,7.68
2019-03-10T01:47:11.582Z,7.67
2019-03-10T01:49:42.367Z,7.74
2019-03-10T01:52:13.090Z,7.86
2019-03-10T01:54:43.680Z,7.81
2019-03-10T01:57:14.249Z,7.86
2019-03-10T01:59:45.513Z,7.87
2019-03-10T02:02:24.912Z,7.97
2019-03-10T02:04:48.631Z,7.96
2019-03-10T02:07:19.433Z,8.01
2019-03-10T02:09:50.160Z,8.00
2019-03-10T02:12:21.646Z,7.97
2019-03-10T02:14:53.996Z,7.94
2019-03-10T02:17:24.410Z,7.98
2019-03-10T02:19:56.782Z,7.92
2019-03-10T02:22:27.407Z,7.88
2019-03-10T02:24:57.981Z,7.88
2019-03-10T02:27:29.487Z,7.96
2019-03-10T02:29:59.913Z,8.06
2019-03-10T02:32:31.364Z,8.01
2019-03-10T02:35:03.951Z,8.04
2019-03-10T02:37:35.005Z,8.07
2019-03-10T02:40:06.808Z,8.01
2019-03-10T02:42:37.060Z,8.07
2019-03-10T02:45:09.795Z,8.04
2019-03-10T02:47:40.986Z,7.97
2019-03-10T02:50:11.817Z,8.00
2019-03-10T02:52:42.421Z,7.82
2019-03-10T02:55:13.282Z,7.79
2019-03-10T02:57:44.016Z,7.66
2019-03-10T03:00:14.641Z,7.58
2019-03-10T03:02:45.493Z,7.55
2019-03-10T03:05:16.111Z,7.55
2019-03-10T03:07:48.275Z,7.39
2019-03-10T03:10:21.263Z,7.24
2019-03-10T03:12:52.197Z,7.09
2019-03-10T03:15:23.491Z,6.95
2019-03-10T03:17:53.866Z,6.81
2019-03-10T03:20:24.600Z,6.74
2019-03-10T03:22:56.047Z,6.67
2019-03-10T03:25:26.340Z,6.66
2019-03-10T03:27:56.900Z,6.69
2019-03-10T03:30:28.445Z,6.73
2019-03-10T03:32:58.861Z,6.70
2019-03-10T03:35:57.123Z,6.72
2019-03-10T03:38:36.729Z,6.74
2019-03-10T03:41:23.267Z,6.73
2019-03-10T03:43:55.467Z,6.79
2019-03-10T03:46:26.017Z,6.75
2019-03-10T03:48:57.336Z,6.75
2019-03-10T03:51:28.379Z,6.72
2019-03-10T03:53:58.806Z,6.67
2019-03-10T03:56:29.638Z,6.61
2019-03-10T03:59:00.613Z,6.60
2019-03-10T04:01:33.899Z,6.40
2019-03-10T04:04:06.546Z,6.23
2019-03-10T04:06:37.145Z,6.31
2019-03-10T04:09:10.266Z,6.21
2019-03-10T04:11:41.730Z,5.99
2019-03-10T04:14:12.005Z,5.86
2019-03-10T04:16:42.526Z,5.86
2019-03-10T04:19:13.396Z,5.72
2019-03-10T04:21:44.128Z,5.73
2019-03-10T04:24:14.959Z,5.76
2019-03-10T04:26:45.591Z,5.85
2019-03-10T04:29:16.840Z,5.75
2019-03-10T04:31:49.322Z,5.80
2019-03-10T04:34:19.969Z,5.80
2019-03-10T04:36:50.467Z,5.83
2019-03-10T04:39:21.097Z,5.81
2019-03-10T04:41:51.840Z,5.80
2019-03-10T04:44:22.565Z,5.84
2019-03-10T04:46:54.117Z,5.94
2019-03-10T04:49:24.441Z,6.01
2019-03-10T04:51:55.376Z,5.97
2019-03-10T04:54:31.318Z,5.97
2019-03-10T04:57:03.706Z,6.01
2019-03-10T04:59:35.233Z,6.02
2019-03-10T05:02:05.883Z,6.04
2019-03-10T05:04:38.943Z,6.07
2019-03-10T05:07:09.502Z,6.11
2019-03-10T05:09:40.442Z,6.18
2019-03-10T05:12:11.207Z,6.26
2019-03-10T05:14:43.027Z,6.41
2019-03-10T05:17:14.270Z,6.57
2019-03-10T05:19:44.526Z,6.67
2019-03-10T05:22:15.528Z,6.80
2019-03-10T05:24:47.696Z,6.92
2019-03-10T05:27:18.936Z,6.98
2019-03-10T05:29:49.362Z,6.96
2019-03-10T05:32:20.098Z,7.14
2019-03-10T05:34:52.674Z,7.28
2019-03-10T05:37:23.404Z,7.30
2019-03-10T05:39:55.716Z,7.43
2019-03-10T05:42:27.431Z,7.47
2019-03-10T05:44:58.066Z,7.64
2019-03-10T05:47:28.767Z,7.65
2019-03-10T05:50:01.061Z,7.81
2019-03-10T05:52:32.051Z,7.87
2019-03-10T05:55:03.166Z,7.96
2019-03-10T05:57:33.785Z,8.15
2019-03-10T06:00:07.676Z,8.34
2019-03-10T06:02:38.307Z,8.43
2019-03-10T06:05:09.143Z,8.50
2019-03-10T06:07:40.734Z,8.65
2019-03-10T06:10:11.077Z,8.73
2019-03-10T06:12:41.862Z,8.71
2019-03-10T06:15:12.539Z,8.66
2019-03-10T06:17:43.319Z,8.73
2019-03-10T06:20:13.948Z,8.77
2019-03-10T06:22:45.206Z,8.83
2019-03-10T06:25:15.824Z,9.04
2019-03-10T06:27:48.088Z,9.36
2019-03-10T06:30:20.257Z,9.59
2019-03-10T06:32:52.524Z,9.62
2019-03-10T06:35:23.261Z,9.78
2019-03-10T06:37:55.942Z,9.77
2019-03-10T06:40:32.108Z,9.80
2019-03-10T06:42:59.183Z,9.62
2019-03-10T06:45:29.975Z,9.73
2019-03-10T06:48:01.115Z,9.72
2019-03-10T06:50:34.101Z,9.82
2019-03-10T06:53:04.361Z,10.13
2019-03-10T06:55:35.156Z,10.11
2019-03-10T06:58:05.760Z,10.30
2019-03-10T07:00:36.317Z,10.54
2019-03-10T07:03:06.948Z,10.53
2019-03-10T07:05:37.270Z,10.41
2019-03-10T07:08:08.413Z,10.86
2019-03-10T07:10:41.091Z,11.08
2019-03-10T07:13:11.923Z,10.89
2019-03-10T07:15:42.867Z,11.02
2019-03-10T07:18:13.617Z,10.88
2019-03-10T07:20:44.528Z,11.03
2019-03-10T07:23:16.900Z,11.13
2019-03-10T07:25:49.376Z,11.43
2019-03-10T07:28:33.558Z,11.91
2019-03-10T07:31:05.730Z,12.03
2019-03-10T07:33:54.647Z,11.63
2019-03-10T07:36:43.711Z,11.63
2019-03-10T07:39:17.529Z,12.03
2019-03-10T07:41:50.197Z,11.60
2019-03-10T07:44:22.292Z,11.91
2019-03-10T07:46:58.416Z,11.67
2019-03-10T07:49:30.992Z,11.56
2019-03-10T07:52:20.678Z,11.45
2019-03-10T07:55:11.577Z,11.61
2019-03-10T07:58:04.636Z,11.76
2019-03-10T08:00:36.896Z,12.03
2019-03-10T08:03:11.926Z,11.84
2019-03-10T08:06:02.729Z,11.95
2019-03-10T08:08:38.283Z,11.95
2019-03-10T08:11:19.553Z,12.07
2019-03-10T08:13:57.251Z,11.91
2019-03-10T08:16:29.316Z,11.68
2019-03-10T08:19:07.492Z,11.99
2019-03-10T08:21:58.118Z,12.18
2019-03-10T08:24:34.587Z,11.97
2019-03-10T08:27:09.556Z,11.87
2019-03-10T08:29:44.959Z,11.75
2019-03-10T08:32:34.744Z,11.80
2019-03-10T08:35:13.977Z,12.43
2019-03-10T08:37:55.356Z,12.83
2019-03-10T08:40:37.719Z,13.26
2019-03-10T08:43:19.349Z,13.27
2019-03-10T08:46:01.448Z,13.17
2019-03-10T08:48:37.822Z,12.60
2019-03-10T08:51:15.812Z,12.27
2019-03-10T08:53:51.053Z,12.68
2019-03-10T08:56:30.075Z,13.10
2019-03-10T08:59:14.431Z,13.38
2019-03-10T09:01:50.487Z,13.22
2019-03-10T09:04:25.006Z,13.35
2019-03-10T09:07:13.656Z,13.18
2019-03-10T09:09:52.112Z,13.10
2019-03-10T09:12:25.977Z,13.06
2019-03-10T09:15:05.491Z,13.04
2019-03-10T09:17:40.860Z,13.58
2019-03-10T09:20:22.141Z,13.62
2019-03-10T09:23:06.633Z,14.40
2019-03-10T09:25:38.185Z,14.42
2019-03-10T09:28:13.384Z,14.75
2019-03-10T09:30:58.041Z,15.17
2019-03-10T09:33:42.363Z,14.52
2019-03-10T09:36:20.194Z,15.22
2019-03-10T09:39:09.051Z,16.24
2019-03-10T09:41:58.855Z,16.96
2019-03-10T09:44:34.026Z,15.56
2019-03-10T09:47:09.309Z,15.79
2019-03-10T09:49:58.167Z,16.24
2019-03-10T09:52:33.644Z,16.69
2019-03-10T09:55:19.388Z,17.80
2019-03-10T09:57:54.934Z,16.52
2019-03-10T10:00:27.291Z,15.38
2019-03-10T10:03:00.495Z,16.56
2019-03-10T10:05:45.463Z,17.62
2019-03-10T10:08:26.847Z,17.25
2019-03-10T10:11:02.693Z,17.32
2019-03-10T10:13:35.534Z,17.88
2019-03-10T10:16:13.954Z,18.82
2019-03-10T10:18:46.975Z,18.40
2019-03-10T10:21:18.750Z,18.65
2019-03-10T10:23:51.818Z,18.94
2019-03-10T10:26:35.738Z,19.96
2019-03-10T10:29:23.839Z,21.09
2019-03-10T10:31:56.273Z,21.51
2019-03-10T10:34:31.512Z,21.13
2019-03-10T10:37:13.002Z,19.33
2019-03-10T10:40:02.574Z,18.45
2019-03-10T10:42:46.828Z,19.60
2019-03-10T10:45:25.023Z,20.47
2019-03-10T10:47:58.941Z,19.30
2019-03-10T10:50:43.289Z,18.97
2019-03-10T10:53:27.865Z,20.56
2019-03-10T10:56:09.545Z,20.35
2019-03-10T10:58:51.013Z,19.99
2019-03-10T11:01:26.048Z,20.11
2019-03-10T11:03:58.931Z,21.42
2019-03-10T11:06:31.202Z,23.30
2019-03-10T11:09:15.553Z,22.60
2019-03-10T11:12:00.989Z,23.35
2019-03-10T11:14:42.310Z,23.53
2019-03-10T11:17:17.759Z,23.59
2019-03-10T11:20:08.143Z,23.45
2019-03-10T11:22:55.468Z,22.38
2019-03-10T11:25:27.836Z,22.44
2019-03-10T11:28:01.052Z,23.73
2019-03-10T11:30:33.202Z,21.90
2019-03-10T11:33:07.240Z,19.99
2019-03-10T11:35:42.239Z,18.48
2019-03-10T11:38:14.916Z,19.73
2019-03-10T11:40:47.237Z,21.00
2019-03-10T11:43:37.268Z,19.26
2019-03-10T11:46:26.248Z,17.72
2019-03-10T11:49:04.844Z,16.44
2019-03-10T11:51:42.646Z,15.99
2019-03-10T11:54:14.872Z,15.63
2019-03-10T11:56:50.455Z,15.55
2019-03-10T11:59:34.400Z,15.86
2019-03-10T12:02:15.565Z,15.61
2019-03-10T12:04:42.703Z,15.54
2019-03-10T12:07:17.454Z,15.15
2019-03-10T12:09:48.184Z,15.63
2019-03-10T12:12:18.818Z,15.90
2019-03-10T12:14:49.562Z,15.27
2019-03-10T12:17:23.655Z,15.30
2019-03-10T12:19:54.846Z,15.02
2019-03-10T12:22:26.500Z,14.91
2019-03-10T12:24:56.703Z,14.91
2019-03-10T12:27:27.509Z,14.98
2019-03-10T12:30:00.800Z,15.14
2019-03-10T12:32:33.381Z,15.15
2019-03-10T12:35:05.833Z,15.20
2019-03-10T12:37:36.080Z,14.71
2019-03-10T12:40:10.179Z,14.48
2019-03-10T12:42:41.018Z,14.49
2019-03-10T12:45:12.896Z,14.25
2019-03-10T12:47:44.130Z,14.00
2019-03-10T12:50:14.855Z,13.96
2019-03-10T12:52:45.073Z,13.79
2019-03-10T12:55:15.602Z,13.77
2019-03-10T12:57:47.768Z,13.73
2019-03-10T13:00:18.498Z,13.70
2019-03-10T13:02:49.847Z,13.80
2019-03-10T13:05:21.194Z,13.72
2019-03-10T13:07:54.387Z,13.51
2019-03-10T13:10:25.641Z,13.61
2019-03-10T13:12:56.266Z,13.49
2019-03-10T13:15:28.326Z,13.48
2019-03-10T13:17:59.290Z,13.50
2019-03-10T13:20:31.111Z,13.41
2019-03-10T13:23:03.153Z,13.36
2019-03-10T13:25:33.711Z,12.99
2019-03-10T13:28:04.151Z,12.24
2019-03-10T13:30:35.482Z,11.67
2019-03-10T13:33:05.599Z,11.39
2019-03-10T13:35:36.130Z,10.43
2019-03-10T13:38:10.478Z,9.71
2019-03-10T13:40:41.154Z,9.31
2019-03-10T13:43:11.495Z,9.08
2019-03-10T13:45:42.130Z,8.99
2019-03-10T13:48:12.655Z,8.88
2019-03-10T13:50:43.519Z,8.74
2019-03-10T13:53:14.523Z,8.61
2019-03-10T13:55:45.673Z,8.54
2019-03-10T13:58:15.900Z,8.51
2019-03-10T14:00:46.376Z,8.49
2019-03-10T14:03:17.764Z,8.36
2019-03-10T14:05:49.121Z,8.13
2019-03-10T14:08:19.630Z,8.11
2019-03-10T14:10:51.588Z,7.96
2019-03-10T14:13:22.191Z,7.85
2019-03-10T14:15:52.774Z,7.87
2019-03-10T14:18:23.799Z,7.83
2019-03-10T14:20:54.838Z,7.76
2019-03-10T14:23:25.268Z,7.78
2019-03-10T14:25:57.742Z,7.74
2019-03-10T14:28:29.906Z,7.65
2019-03-10T14:31:00.558Z,7.64
2019-03-10T14:33:31.366Z,7.58
2019-03-10T14:36:02.205Z,7.53
2019-03-10T14:38:32.693Z,7.47
2019-03-10T14:41:05.485Z,7.32
2019-03-10T14:43:35.645Z,7.08
2019-03-10T14:46:06.159Z,6.33
2019-03-10T14:48:36.788Z,5.80
2019-03-10T14:51:08.856Z,5.68
2019-03-10T14:53:39.481Z,5.53
2019-03-10T14:56:10.419Z,5.42
2019-03-10T14:58:41.253Z,5.18
2019-03-10T15:01:12.602Z,5.11
2019-03-10T15:03:43.031Z,4.94
2019-03-10T15:06:14.249Z,4.79
2019-03-10T15:08:46.420Z,4.66
2019-03-10T15:11:16.973Z,4.57
2019-03-10T15:13:47.800Z,4.41
2019-03-10T15:16:19.861Z,4.36
2019-03-10T15:18:52.952Z,4.33
2019-03-10T15:21:23.577Z,4.35
2019-03-10T15:23:56.264Z,4.30
2019-03-10T15:26:28.439Z,4.31
2019-03-10T15:28:58.950Z,4.29
2019-03-10T15:31:29.653Z,4.34
2019-03-10T15:34:01.241Z,4.41
2019-03-10T15:36:32.151Z,4.41
2019-03-10T15:39:03.628Z,4.46
2019-03-10T15:41:33.846Z,4.53
2019-03-10T15:44:04.681Z,4.57
2019-03-10T15:46:35.328Z,4.53
2019-03-10T15:49:05.836Z,4.55
2019-03-10T15:51:38.112Z,4.52
2019-03-10T15:54:08.644Z,4.58
2019-03-10T15:56:39.370Z,4.62
2019-03-10T15:59:10.535Z,4.62
2019-03-10T16:01:40.935Z,4.63
2019-03-10T16:04:17.114Z,4.63
2019-03-10T16:06:47.211Z,4.68
2019-03-10T16:09:17.762Z,4.65
2019-03-10T16:11:49.390Z,4.68
2019-03-10T16:14:22.296Z,4.69
2019-03-10T16:16:52.497Z,4.69
2019-03-10T16:19:23.956Z,4.81
2019-03-10T16:21:55.470Z,4.83
2019-03-10T16:24:26.949Z,4.82
2019-03-10T16:26:57.676Z,4.86
2019-03-10T16:29:28.005Z,4.94
2019-03-10T16:32:00.301Z,4.99
2019-03-10T16:34:32.638Z,4.98
2019-03-10T16:37:02.861Z,4.99
2019-03-10T16:39:33.390Z,5.03
2019-03-10T16:42:04.020Z,5.07
2019-03-10T16:44:35.365Z,5.07
2019-03-10T16:47:07.535Z,5.09
2019-03-10T16:49:38.159Z,5.11
2019-03-10T16:52:09.307Z,5.08
2019-03-10T16:54:39.651Z,5.07
2019-03-10T16:57:10.354Z,5.12
2019-03-10T16:59:40.890Z,5.13
2019-03-10T17:02:11.518Z,5.15
2019-03-10T17:04:42.213Z,5.17
2019-03-10T17:07:13.584Z,5.16
2019-03-10T17:09:43.982Z,5.17
2019-03-10T17:12:14.558Z,5.20
2019-03-10T17:14:45.899Z,5.24
2019-03-10T17:17:17.239Z,5.32
2019-03-10T17:19:47.770Z,5.40
2019-03-10T17:22:18.307Z,5.46
2019-03-10T17:24:48.828Z,5.47
2019-03-10T17:27:21.501Z,5.44
2019-03-10T17:29:52.235Z,5.47
2019-03-10T17:32:25.630Z,5.45
2019-03-10T17:34:56.059Z,5.43
2019-03-10T17:37:27.304Z,5.39
2019-03-10T17:39:59.570Z,5.28
2019-03-10T17:42:30.100Z,5.29
2019-03-10T17:45:00.800Z,5.29
2019-03-10T17:47:32.289Z,5.23
2019-03-10T17:50:02.702Z,5.26
2019-03-10T17:52:33.187Z,5.23
2019-03-10T17:55:04.971Z,5.19
2019-03-10T17:57:35.092Z,5.21
2019-03-10T18:00:14.172Z,5.19
2019-03-10T18:02:45.139Z,5.29
2019-03-10T18:05:15.702Z,5.20
2019-03-10T18:07:48.480Z,5.11
2019-03-10T18:10:19.111Z,5.15
2019-03-10T18:12:49.567Z,5.08
2019-03-10T18:15:20.952Z,5.07
2019-03-10T18:17:51.408Z,5.05
2019-03-10T18:20:24.167Z,5.06
2019-03-10T18:22:55.669Z,5.22
2019-03-10T18:25:27.570Z,5.03
2019-03-10T18:27:58.129Z,5.18
2019-03-10T18:30:29.135Z,5.20
2019-03-10T18:32:59.622Z,5.20
2019-03-10T18:35:31.204Z,5.27
2019-03-10T18:38:01.774Z,5.22
2019-03-10T18:40:32.507Z,5.25
2019-03-10T18:43:03.031Z,5.26
2019-03-10T18:45:33.666Z,5.25
2019-03-10T18:48:04.195Z,5.27
2019-03-10T18:50:35.643Z,5.28
2019-03-10T18:53:05.968Z,5.30
2019-03-10T18:55:36.593Z,5.39
2019-03-10T18:58:08.255Z,5.39
2019-03-10T19:00:38.731Z,5.43
2019-03-10T19:03:09.917Z,5.52
2019-03-10T19:05:40.752Z,5.54
2019-03-10T19:08:11.180Z,5.53
2019-03-10T19:10:41.780Z,5.59
2019-03-10T19:13:14.589Z,5.66
2019-03-10T19:15:46.240Z,5.63
2019-03-10T19:18:17.797Z,5.60
2019-03-10T19:20:47.976Z,5.60
2019-03-10T19:23:18.463Z,5.71
2019-03-10T19:25:50.914Z,5.58
2019-03-10T19:28:21.095Z,5.70
2019-03-10T19:30:52.481Z,5.65
2019-03-10T19:33:22.906Z,5.58
2019-03-10T19:35:53.538Z,5.57
2019-03-10T19:38:24.172Z,5.53
2019-03-10T19:40:54.693Z,5.55
2019-03-10T19:43:25.324Z,5.59
2019-03-10T19:45:55.823Z,5.50
2019-03-10T19:48:26.894Z,5.54
2019-03-10T19:50:57.112Z,5.44
2019-03-10T19:53:27.451Z,5.43
2019-03-10T19:55:58.680Z,5.40
2019-03-10T19:58:29.001Z,5.37
2019-03-10T20:00:59.732Z,5.32
2019-03-10T20:03:31.769Z,5.12
2019-03-10T20:06:02.735Z,5.12
2019-03-10T20:08:33.272Z,5.02
2019-03-10T20:11:04.202Z,4.97
2019-03-10T20:13:35.148Z,4.88
2019-03-10T20:16:06.690Z,4.97
2019-03-10T20:18:37.319Z,4.84
2019-03-10T20:21:07.908Z,4.86
2019-03-10T20:23:38.478Z,4.83
2019-03-10T20:26:09.518Z,4.87
2019-03-10T20:28:41.483Z,4.88
2019-03-10T20:31:11.904Z,4.87
2019-03-10T20:33:42.431Z,4.85
2019-03-10T20:36:12.979Z,4.89
2019-03-10T20:38:43.689Z,4.84
2019-03-10T20:41:14.728Z,4.80
2019-03-10T20:43:44.851Z,4.88
2019-03-10T20:46:15.479Z,4.87
2019-03-10T20:48:46.009Z,4.83
2019-03-10T20:51:18.480Z,4.79
2019-03-10T20:53:48.679Z,4.71
2019-03-10T20:56:19.058Z,4.74
2019-03-10T20:58:50.475Z,4.64
2019-03-10T21:01:21.537Z,4.63
2019-03-10T21:03:53.032Z,4.61
2019-03-10T21:06:23.999Z,4.52
2019-03-10T21:08:54.424Z,4.52
2019-03-10T21:11:25.671Z,4.48
2019-03-10T21:13:56.298Z,4.48
2019-03-10T21:16:26.855Z,4.42
2019-03-10T21:18:57.258Z,4.29
2019-03-10T21:21:27.783Z,4.19
2019-03-10T21:23:59.741Z,4.18
2019-03-10T21:26:30.387Z,4.11
2019-03-10T21:29:03.484Z,4.11
2019-03-10T21:31:32.863Z,4.05
2019-03-10T21:34:05.447Z,3.93
2019-03-10T21:36:37.473Z,3.80
2019-03-10T21:39:08.535Z,3.68
2019-03-10T21:41:39.166Z,3.54
2019-03-10T21:44:10.106Z,3.50
2019-03-10T21:46:40.532Z,3.48
2019-03-10T21:49:13.622Z,3.50
2019-03-10T21:51:44.770Z,3.47
2019-03-10T21:54:16.094Z,3.49
2019-03-10T21:56:46.338Z,3.53
2019-03-10T21:59:17.348Z,3.65
2019-03-10T22:01:47.999Z,3.58
2019-03-10T22:04:19.207Z,3.60
2019-03-10T22:06:49.665Z,3.65
2019-03-10T22:09:20.295Z,3.65
2019-03-10T22:11:53.283Z,3.61
2019-03-10T22:14:23.499Z,3.57
2019-03-10T22:16:54.017Z,3.47
2019-03-10T22:19:24.555Z,3.38
2019-03-10T22:21:55.073Z,3.35
2019-03-10T22:24:27.252Z,3.22
2019-03-10T22:26:58.496Z,3.23
2019-03-10T22:29:30.619Z,3.12
2019-03-10T22:32:01.905Z,3.12
2019-03-10T22:34:33.134Z,3.07
2019-03-10T22:37:03.822Z,3.17
2019-03-10T22:39:34.309Z,3.19
2019-03-10T22:42:04.940Z,3.12
2019-03-10T22:44:36.283Z,3.09
2019-03-10T22:47:06.916Z,3.15
2019-03-10T22:49:37.445Z,3.06
2019-03-10T22:52:08.091Z,3.01
2019-03-10T22:54:38.946Z,2.90
2019-03-10T22:57:09.822Z,2.89
2019-03-10T22:59:41.193Z,2.93
2019-03-10T23:02:13.884Z,2.94
2019-03-10T23:04:44.503Z,2.95
2019-03-10T23:07:15.234Z,2.95
2019-03-10T23:09:46.788Z,3.01
2019-03-10T23:12:18.600Z,3.05
2019-03-10T23:14:48.775Z,2.99
2019-03-10T23:17:19.759Z,3.12
2019-03-10T23:19:50.309Z,3.26
2019-03-10T23:22:21.166Z,3.30
2019-03-10T23:24:54.970Z,3.25
2019-03-10T23:27:25.421Z,3.28
2019-03-10T23:29:58.087Z,3.22
2019-03-10T23:32:29.169Z,3.24
2019-03-10T23:35:00.501Z,3.21
2019-03-10T23:37:32.725Z,3.12
2019-03-10T23:40:04.377Z,3.00
2019-03-10T23:42:34.912Z,3.13
2019-03-10T23:45:10.466Z,3.24
2019-03-10T23:47:40.885Z,3.23
2019-03-10T23:50:13.660Z,3.18
2019-03-10T23:52:44.392Z,3.24
2019-03-10T23:55:15.536Z,3.15
2019-03-10T23:57:45.677Z,3.20
